createdAt,value
2022-09-28T06:52:21.974Z,98.22
2022-09-28T06:53:21.966Z,98.63
2022-09-28T06:54:21.944Z,98.53
2022-09-28T06:55:21.914Z,98.69
2022-09-28T06:56:21.947Z,98.53
2022-09-28T06:57:21.861Z,98.49
2022-09-28T06:58:21.852Z,98.12
2022-09-28T06:59:21.859Z,98.63
2022-09-28T07:00:21.829Z,99.35
2022-09-28T07:01:21.878Z,99.30
2022-09-28T07:02:21.856Z,98.90
2022-09-28T07:03:21.803Z,98.79
2022-09-28T07:04:21.814Z,98.18
2022-09-28T07:05:21.792Z,98.07
2022-09-28T07:06:21.768Z,98.49
2022-09-28T07:07:21.768Z,97.66
2022-09-28T07:08:21.759Z,97.77
2022-09-28T07:09:32.434Z,97.77
2022-09-28T07:10:22.764Z,98.02
2022-09-28T07:11:21.716Z,98.49
2022-09-28T07:12:21.708Z,98.58
2022-09-28T07:13:46.832Z,98.07
2022-09-28T07:14:43.314Z,97.66
2022-09-28T07:15:22.673Z,97.87
2022-09-28T07:16:26.683Z,98.38
2022-09-28T07:17:22.655Z,98.28
2022-09-28T07:18:21.708Z,97.50
2022-09-28T07:19:21.632Z,97.81
2022-09-28T07:20:21.628Z,98.12
2022-09-28T07:21:29.318Z,98.53
2022-09-28T07:22:37.522Z,98.83
2022-09-28T07:23:22.590Z,98.53
2022-09-28T07:24:21.596Z,98.43
2022-09-28T07:25:21.566Z,98.83
2022-09-28T07:26:24.020Z,99.35
2022-09-28T07:27:25.490Z,98.99
2022-09-28T07:28:22.558Z,98.79
2022-09-28T07:29:21.529Z,98.79
2022-09-28T07:30:21.576Z,98.79
2022-09-28T07:31:21.578Z,99.10
2022-09-28T07:32:21.555Z,98.79
2022-09-28T07:33:21.488Z,98.99
2022-09-28T07:34:21.469Z,98.90
2022-09-28T07:35:21.456Z,98.99
2022-09-28T07:36:21.467Z,98.99
2022-09-28T07:37:21.439Z,98.99
2022-09-28T07:38:21.457Z,99.30
2022-09-28T07:39:21.421Z,98.79
2022-09-28T07:40:21.495Z,98.90
2022-09-28T07:41:21.417Z,98.79
2022-09-28T07:42:21.383Z,98.69
2022-09-28T07:43:21.388Z,98.28
2022-09-28T07:44:21.363Z,98.39
2022-09-28T07:45:21.361Z,98.13
2022-09-28T07:46:21.436Z,98.08
2022-09-28T07:47:21.340Z,97.88
2022-09-28T07:48:21.328Z,97.37
2022-09-28T07:49:21.317Z,98.29
2022-09-28T07:50:21.327Z,97.47
2022-09-28T07:51:21.340Z,97.53
2022-09-28T07:52:21.284Z,97.47
2022-09-28T07:53:21.277Z,97.12
2022-09-28T07:54:21.262Z,97.33
2022-09-28T07:55:21.244Z,96.66
2022-09-28T07:56:21.260Z,97.02
2022-09-28T07:57:21.230Z,96.81
2022-09-28T07:58:21.230Z,96.51
2022-09-28T07:59:21.213Z,97.33
2022-09-28T08:00:21.199Z,97.02
2022-09-28T08:01:21.267Z,96.67
2022-09-28T08:02:21.253Z,95.89
2022-09-28T08:03:21.179Z,95.79
2022-09-28T08:04:21.156Z,95.69
2022-09-28T08:05:21.174Z,95.48
2022-09-28T08:06:21.142Z,95.75
2022-09-28T08:07:23.852Z,95.89
2022-09-28T08:08:21.120Z,95.64
2022-09-28T08:09:21.109Z,95.54
2022-09-28T08:10:21.114Z,95.64
2022-09-28T08:11:21.095Z,95.60
2022-09-28T08:12:21.101Z,95.60
2022-09-28T08:13:23.476Z,94.43
2022-09-28T08:14:22.065Z,94.74
2022-09-28T08:15:21.045Z,94.49
2022-09-28T08:16:21.253Z,93.41
2022-09-28T08:17:21.020Z,93.31
2022-09-28T08:18:21.015Z,92.86
2022-09-28T08:19:20.993Z,92.86
2022-09-28T08:20:21.010Z,92.76
2022-09-28T08:21:20.978Z,92.14
2022-09-28T08:22:20.968Z,92.10
2022-09-28T08:23:20.951Z,91.69
2022-09-28T08:24:20.950Z,91.18
2022-09-28T08:25:20.957Z,90.47
2022-09-28T08:26:20.942Z,90.57
2022-09-28T08:27:20.907Z,91.14
2022-09-28T08:28:20.924Z,91.55
2022-09-28T08:29:20.898Z,91.20
2022-09-28T08:30:20.889Z,91.09
2022-09-28T08:31:21.001Z,90.18
2022-09-28T08:32:20.871Z,90.34
2022-09-28T08:33:20.853Z,89.16
2022-09-28T08:34:20.838Z,89.42
2022-09-28T08:35:20.824Z,89.73
2022-09-28T08:36:20.826Z,89.83
2022-09-28T08:37:20.801Z,89.73
2022-09-28T08:38:20.816Z,87.90
2022-09-28T08:39:20.787Z,87.79
2022-09-28T08:40:20.809Z,87.84
2022-09-28T08:41:20.781Z,87.84
2022-09-28T08:42:20.758Z,87.84
2022-09-28T08:43:20.755Z,88.10
2022-09-28T08:44:20.772Z,88.14
2022-09-28T08:45:22.512Z,88.61
2022-09-28T08:46:23.815Z,87.90
2022-09-28T08:47:21.701Z,87.90
2022-09-28T08:48:20.703Z,87.59
2022-09-28T08:49:25.518Z,87.79
2022-09-28T08:50:21.700Z,87.45
2022-09-28T08:51:20.671Z,87.18
2022-09-28T08:52:20.645Z,88.06
2022-09-28T08:53:20.632Z,87.55
2022-09-28T08:54:20.639Z,87.10
2022-09-28T08:55:20.637Z,86.43
2022-09-28T08:56:20.642Z,86.33
2022-09-28T08:57:20.593Z,86.22
2022-09-28T08:58:20.607Z,86.74
2022-09-28T08:59:20.579Z,86.74
2022-09-28T09:00:20.640Z,85.82
2022-09-28T09:01:20.635Z,85.51
2022-09-28T09:02:20.657Z,86.68
2022-09-28T09:03:20.823Z,86.27
2022-09-28T09:04:20.548Z,86.16
2022-09-28T09:05:20.516Z,86.16
2022-09-28T09:06:20.512Z,86.98
2022-09-28T09:07:20.496Z,88.10
2022-09-28T09:08:20.484Z,88.00
2022-09-28T09:09:20.499Z,86.88
2022-09-28T09:10:20.512Z,86.82
2022-09-28T09:11:20.466Z,86.21
2022-09-28T09:12:20.449Z,85.08
2022-09-28T09:13:20.425Z,86.61
2022-09-28T09:14:20.421Z,85.80
2022-09-28T09:15:20.426Z,86.30
2022-09-28T09:16:20.463Z,86.92
2022-09-28T09:17:20.419Z,87.12
2022-09-28T09:18:20.379Z,86.41
2022-09-28T09:19:20.379Z,86.71
2022-09-28T09:20:20.415Z,87.12
2022-09-28T09:21:20.348Z,85.80
2022-09-28T09:22:20.354Z,86.21
2022-09-28T09:23:20.340Z,86.92
2022-09-28T09:24:20.326Z,86.61
2022-09-28T09:25:20.315Z,86.88
2022-09-28T09:26:24.872Z,87.59
2022-09-28T09:27:21.283Z,87.59
2022-09-28T09:28:20.273Z,86.37
2022-09-28T09:29:20.267Z,86.57
2022-09-28T09:30:20.671Z,86.16
2022-09-28T09:31:22.724Z,86.77
2022-09-28T09:32:20.246Z,86.47
2022-09-28T09:33:20.233Z,85.86
2022-09-28T09:34:20.208Z,85.75
2022-09-28T09:35:22.505Z,87.90
2022-09-28T09:36:20.186Z,87.90
2022-09-28T09:37:20.180Z,86.47
2022-09-28T09:38:20.160Z,86.13
2022-09-28T09:39:20.170Z,86.13
2022-09-28T09:40:20.242Z,84.59
2022-09-28T09:41:20.135Z,85.41
2022-09-28T09:42:20.119Z,84.39
2022-09-28T09:43:20.118Z,84.80
2022-09-28T09:44:20.121Z,84.03
2022-09-28T09:45:20.088Z,85.05
2022-09-28T09:46:20.161Z,85.25
2022-09-28T09:47:20.077Z,84.94
2022-09-28T09:48:20.072Z,85.05
2022-09-28T09:49:20.044Z,84.06
2022-09-28T09:50:20.046Z,85.19
2022-09-28T09:51:20.035Z,84.88
2022-09-28T09:52:20.047Z,85.19
2022-09-28T09:53:20.025Z,86.00
2022-09-28T09:54:19.991Z,86.61
2022-09-28T09:55:20.004Z,87.43
2022-09-28T09:56:19.978Z,87.98
2022-09-28T09:57:19.970Z,87.26
2022-09-28T09:58:19.958Z,87.88
2022-09-28T09:59:20.002Z,87.23
2022-09-28T10:00:19.928Z,87.43
2022-09-28T10:01:19.995Z,87.67
2022-09-28T10:02:19.970Z,88.08
2022-09-28T10:03:19.905Z,87.37
2022-09-28T10:04:19.918Z,88.28
2022-09-28T10:05:19.911Z,87.37
2022-09-28T10:06:19.867Z,88.18
2022-09-28T10:07:19.882Z,88.73
2022-09-28T10:08:19.852Z,88.22
2022-09-28T10:09:27.535Z,88.53
2022-09-28T10:10:19.874Z,89.25
2022-09-28T10:11:19.881Z,89.71
2022-09-28T10:12:19.864Z,89.77
2022-09-28T10:13:19.815Z,89.77
2022-09-28T10:14:19.808Z,89.73
2022-09-28T10:15:19.832Z,88.45
2022-09-28T10:16:19.893Z,88.34
2022-09-28T10:17:19.832Z,88.45
2022-09-28T10:18:19.883Z,89.42
2022-09-28T10:19:19.736Z,89.94
2022-09-28T10:20:19.757Z,89.89
2022-09-28T10:21:19.713Z,89.75
2022-09-28T10:22:19.697Z,88.28
2022-09-28T10:23:19.712Z,87.37
2022-09-28T10:24:19.675Z,86.96
2022-09-28T10:25:19.694Z,86.92
2022-09-28T10:26:24.179Z,86.27
2022-09-28T10:27:20.649Z,86.13
2022-09-28T10:28:19.655Z,85.05
2022-09-28T10:29:19.748Z,85.11
2022-09-28T10:30:19.619Z,84.91
2022-09-28T10:31:19.619Z,84.09
2022-09-28T10:32:19.594Z,83.99
2022-09-28T10:33:19.580Z,83.95
2022-09-28T10:34:19.768Z,83.75
2022-09-28T10:35:19.591Z,83.95
2022-09-28T10:36:19.621Z,83.04
2022-09-28T10:37:19.544Z,83.34
2022-09-28T10:38:19.535Z,83.95
2022-09-28T10:39:19.525Z,83.65
2022-09-28T10:40:19.535Z,83.24
2022-09-28T10:41:19.520Z,82.53
2022-09-28T10:42:19.481Z,83.18
2022-09-28T10:43:19.484Z,83.69
2022-09-28T10:44:19.640Z,84.50
2022-09-28T10:45:19.480Z,85.78
2022-09-28T10:46:19.533Z,84.97
2022-09-28T10:47:19.450Z,85.58
2022-09-28T10:48:19.423Z,83.99
2022-09-28T10:49:19.417Z,84.20
2022-09-28T10:50:19.419Z,84.03
2022-09-28T10:51:19.403Z,84.44
2022-09-28T10:52:19.411Z,84.54
2022-09-28T10:53:19.378Z,85.05
2022-09-28T10:54:19.583Z,85.15
2022-09-28T10:55:19.353Z,84.95
2022-09-28T10:56:19.359Z,85.05
2022-09-28T10:57:19.330Z,83.22
2022-09-28T10:58:19.351Z,84.03
2022-09-28T10:59:19.314Z,85.29
2022-09-28T11:00:19.306Z,86.00
2022-09-28T11:01:19.333Z,86.41
2022-09-28T11:02:19.340Z,86.51
2022-09-28T11:03:19.272Z,85.09
2022-09-28T11:04:19.346Z,86.04
2022-09-28T11:05:19.251Z,85.64
2022-09-28T11:06:19.233Z,86.15
2022-09-28T11:07:19.219Z,84.72
2022-09-28T11:08:19.244Z,86.19
2022-09-28T11:09:19.360Z,86.59
2022-09-28T11:10:19.192Z,86.69
2022-09-28T11:11:19.195Z,86.59
2022-09-28T11:12:19.164Z,86.69
2022-09-28T11:13:19.162Z,87.00
2022-09-28T11:14:19.145Z,86.69
2022-09-28T11:15:19.153Z,87.10
2022-09-28T11:16:19.246Z,88.12
2022-09-28T11:17:19.131Z,86.90
2022-09-28T11:18:19.104Z,86.19
2022-09-28T11:19:19.213Z,86.43
2022-09-28T11:20:22.413Z,86.53
2022-09-28T11:21:20.070Z,86.80
2022-09-28T11:22:21.705Z,86.69
2022-09-28T11:23:19.049Z,85.82
2022-09-28T11:24:19.728Z,86.59
2022-09-28T11:25:19.036Z,86.69
2022-09-28T11:26:19.185Z,86.33
2022-09-28T11:27:19.013Z,87.14
2022-09-28T11:28:19.002Z,87.24
2022-09-28T11:29:19.097Z,86.57
2022-09-28T11:30:18.982Z,87.69
2022-09-28T11:31:19.072Z,87.90
2022-09-28T11:32:18.956Z,88.26
2022-09-28T11:33:18.951Z,87.65
2022-09-28T11:34:19.101Z,88.36
2022-09-28T11:35:18.919Z,87.85
2022-09-28T11:36:18.916Z,88.61
2022-09-28T11:37:18.909Z,88.10
2022-09-28T11:38:18.902Z,88.20
2022-09-28T11:39:18.939Z,88.31
2022-09-28T11:40:19.008Z,87.96
2022-09-28T11:41:18.858Z,87.96
2022-09-28T11:42:18.858Z,88.00
2022-09-28T11:43:18.836Z,88.10
2022-09-28T11:44:19.006Z,88.20
2022-09-28T11:45:18.820Z,88.57
2022-09-28T11:46:18.875Z,88.31
2022-09-28T11:47:18.797Z,88.31
2022-09-28T11:48:18.798Z,88.40
2022-09-28T11:49:18.772Z,89.12
2022-09-28T11:50:23.541Z,89.48
2022-09-28T11:51:19.749Z,89.59
2022-09-28T11:52:18.752Z,88.02
2022-09-28T11:53:18.765Z,87.24
2022-09-28T11:54:18.769Z,86.33
2022-09-28T11:55:18.714Z,86.63
2022-09-28T11:56:18.731Z,87.69
2022-09-28T11:57:18.701Z,88.20
2022-09-28T11:58:18.687Z,88.31
2022-09-28T11:59:18.677Z,89.32
2022-09-28T12:00:18.667Z,89.32
2022-09-28T12:01:19.126Z,89.22
2022-09-28T12:02:18.770Z,89.32
2022-09-28T12:03:18.801Z,89.73
2022-09-28T12:04:18.700Z,89.73
2022-09-28T12:05:21.037Z,89.38
2022-09-28T12:06:18.593Z,88.40
2022-09-28T12:07:18.586Z,88.81
2022-09-28T12:08:27.179Z,89.83
2022-09-28T12:09:18.614Z,89.83
2022-09-28T12:10:18.550Z,89.63
2022-09-28T12:11:18.645Z,89.94
2022-09-28T12:12:18.561Z,89.69
2022-09-28T12:13:18.577Z,89.63
2022-09-28T12:14:18.542Z,88.40
2022-09-28T12:15:18.562Z,89.32
2022-09-28T12:17:03.731Z,89.07
2022-09-28T12:17:26.198Z,88.98
2022-09-28T12:18:26.071Z,90.09
2022-09-28T12:19:26.144Z,90.66
2022-09-28T12:20:18.502Z,89.75
2022-09-28T12:21:18.510Z,89.18
2022-09-28T12:22:18.419Z,89.18
2022-09-28T12:23:18.432Z,88.32
2022-09-28T12:24:18.446Z,88.67
2022-09-28T12:25:18.441Z,88.32
2022-09-28T12:26:18.469Z,88.63
2022-09-28T12:27:18.393Z,88.53
2022-09-28T12:28:18.375Z,87.65
2022-09-28T12:29:18.510Z,88.42
2022-09-28T12:30:18.350Z,88.42
2022-09-28T12:31:18.373Z,88.32
2022-09-28T12:32:18.326Z,88.12
2022-09-28T12:33:18.317Z,88.12
2022-09-28T12:34:18.296Z,88.12
2022-09-28T12:35:18.281Z,88.12
2022-09-28T12:36:18.295Z,88.02
2022-09-28T12:37:18.294Z,87.92
2022-09-28T12:38:18.260Z,87.45
2022-09-28T12:39:27.077Z,87.81
2022-09-28T12:40:19.334Z,88.02
2022-09-28T12:41:18.218Z,87.92
2022-09-28T12:42:18.229Z,86.69
2022-09-28T12:43:18.222Z,86.19
2022-09-28T12:44:18.223Z,86.49
2022-09-28T12:45:18.185Z,86.29
2022-09-28T12:46:18.270Z,87.14
2022-09-28T12:47:18.151Z,86.80
2022-09-28T12:48:18.145Z,87.00
2022-09-28T12:50:38.492Z,86.33
2022-09-28T12:51:19.130Z,87.41
2022-09-28T12:52:18.097Z,87.30
2022-09-28T12:53:18.101Z,87.35
2022-09-28T12:54:18.189Z,87.85
2022-09-28T12:55:18.079Z,87.35
2022-09-28T12:56:20.857Z,88.02
2022-09-28T12:57:18.054Z,87.92
2022-09-28T12:58:18.056Z,86.69
2022-09-28T12:59:18.195Z,85.92
2022-09-28T13:00:18.039Z,84.50
2022-09-28T13:01:18.069Z,86.39
2022-09-28T13:02:18.118Z,86.19
2022-09-28T13:03:17.986Z,86.29
2022-09-28T13:04:17.986Z,85.78
2022-09-28T13:05:17.964Z,86.49
2022-09-28T13:06:17.951Z,86.19
2022-09-28T13:07:17.940Z,86.19
2022-09-28T13:08:17.953Z,85.88
2022-09-28T13:09:18.019Z,86.08
2022-09-28T13:10:17.931Z,86.69
2022-09-28T13:11:17.894Z,85.06
2022-09-28T13:12:17.883Z,85.61
2022-09-28T13:13:17.880Z,85.35
2022-09-28T13:14:17.877Z,86.88
2022-09-28T13:15:17.864Z,87.23
2022-09-28T13:16:18.001Z,87.08
2022-09-28T13:17:17.864Z,86.43
2022-09-28T13:18:17.826Z,86.22
2022-09-28T13:19:17.921Z,84.80
2022-09-28T13:20:17.799Z,86.02
2022-09-28T13:21:17.794Z,85.00
2022-09-28T13:22:17.782Z,85.21
2022-09-28T13:23:17.790Z,85.21
2022-09-28T13:24:31.574Z,84.50
2022-09-28T13:25:18.750Z,84.39
2022-09-28T13:26:17.754Z,83.07
2022-09-28T13:27:17.736Z,84.23
2022-09-28T13:28:17.715Z,84.19
2022-09-28T13:29:17.722Z,85.00
2022-09-28T13:30:17.698Z,85.72
2022-09-28T13:31:17.709Z,86.08
2022-09-28T13:32:17.702Z,86.33
2022-09-28T13:33:17.672Z,85.58
2022-09-28T13:34:17.664Z,85.21
2022-09-28T13:35:17.661Z,86.13
2022-09-28T13:36:17.636Z,86.53
2022-09-28T13:37:17.641Z,85.21
2022-09-28T13:38:17.608Z,85.82
2022-09-28T13:39:17.601Z,86.22
2022-09-28T13:40:17.626Z,87.30
2022-09-28T13:41:17.587Z,85.72
2022-09-28T13:42:17.597Z,84.90
2022-09-28T13:43:19.715Z,85.41
2022-09-28T13:44:17.684Z,86.02
2022-09-28T13:45:17.571Z,86.68
2022-09-28T13:46:17.614Z,86.27
2022-09-28T13:47:20.730Z,87.08
2022-09-28T13:48:17.543Z,87.18
2022-09-28T13:49:17.498Z,88.10
2022-09-28T13:50:17.504Z,88.00
2022-09-28T13:51:17.487Z,88.31
2022-09-28T13:52:17.469Z,87.90
2022-09-28T13:53:17.461Z,87.90
2022-09-28T13:54:17.466Z,88.10
2022-09-28T13:55:17.442Z,88.20
2022-09-28T13:56:17.430Z,88.85
2022-09-28T13:57:17.423Z,89.32
2022-09-28T13:58:17.409Z,89.63
2022-09-28T13:59:17.406Z,89.32
2022-09-28T14:00:17.379Z,89.42
2022-09-28T14:01:17.410Z,89.36
2022-09-28T14:02:17.403Z,89.42
2022-09-28T14:03:17.354Z,89.42
2022-09-28T14:04:17.360Z,89.83
2022-09-28T14:05:17.355Z,89.32
2022-09-28T14:06:17.324Z,88.20
2022-09-28T14:07:17.363Z,88.51
2022-09-28T14:08:17.299Z,88.40
2022-09-28T14:09:17.380Z,88.40
2022-09-28T14:10:17.304Z,87.94
2022-09-28T14:11:17.280Z,87.90
2022-09-28T14:12:17.256Z,88.00
2022-09-28T14:13:17.251Z,88.24
2022-09-28T14:14:17.253Z,87.29
2022-09-28T14:15:17.253Z,87.69
2022-09-28T14:16:17.358Z,87.79
2022-09-28T14:17:17.323Z,88.10
2022-09-28T14:18:17.186Z,88.31
2022-09-28T14:19:17.369Z,88.10
2022-09-28T14:20:17.330Z,87.38
2022-09-28T14:21:17.650Z,86.43
2022-09-28T14:22:17.823Z,86.74
2022-09-28T14:23:17.320Z,86.33
2022-09-28T14:24:18.719Z,87.04
2022-09-28T14:25:24.577Z,86.63
2022-09-28T14:26:19.524Z,86.02
2022-09-28T14:27:17.170Z,86.74
2022-09-28T14:28:17.130Z,85.92
2022-09-28T14:29:17.109Z,86.37
2022-09-28T14:30:17.131Z,86.88
2022-09-28T14:31:17.108Z,86.77
2022-09-28T14:32:17.044Z,86.94
2022-09-28T14:33:17.048Z,85.61
2022-09-28T14:34:17.014Z,85.14
2022-09-28T14:35:18.772Z,85.25
2022-09-28T14:36:17.029Z,85.14
2022-09-28T14:37:16.993Z,85.14
2022-09-28T14:38:16.996Z,85.55
2022-09-28T14:39:17.002Z,85.86
2022-09-28T14:40:17.001Z,86.16
2022-09-28T14:41:16.990Z,83.82
2022-09-28T14:42:16.937Z,84.67
2022-09-28T14:43:17.289Z,84.98
2022-09-28T14:44:18.113Z,84.88
2022-09-28T14:45:17.664Z,86.61
2022-09-28T14:46:19.352Z,85.39
2022-09-28T14:47:17.280Z,85.53
2022-09-28T14:48:17.252Z,86.35
2022-09-28T14:49:17.785Z,86.65
2022-09-28T14:50:17.151Z,85.43
2022-09-28T14:51:16.844Z,86.45
2022-09-28T14:52:16.852Z,86.86
2022-09-28T14:53:16.812Z,88.39
2022-09-28T14:54:16.809Z,87.98
2022-09-28T14:55:16.798Z,88.49
2022-09-28T14:56:16.784Z,88.39
2022-09-28T14:57:16.778Z,87.26
2022-09-28T14:58:16.826Z,88.49
2022-09-28T14:59:16.752Z,87.37
2022-09-28T15:00:16.742Z,88.59
2022-09-28T15:01:19.519Z,90.01
2022-09-28T15:02:16.978Z,89.40
2022-09-28T15:03:16.889Z,89.45
2022-09-28T15:04:18.042Z,90.22
2022-09-28T15:05:17.107Z,89.96
2022-09-28T15:06:18.096Z,89.86
2022-09-28T15:07:16.687Z,90.57
2022-09-28T15:08:16.683Z,90.47
2022-09-28T15:09:16.659Z,89.65
2022-09-28T15:10:16.645Z,89.96
2022-09-28T15:11:16.615Z,89.96
2022-09-28T15:12:16.632Z,90.47
2022-09-28T15:13:16.653Z,90.61
2022-09-28T15:14:16.591Z,90.57
2022-09-28T15:15:16.613Z,90.67
2022-09-28T15:16:16.694Z,91.39
2022-09-28T15:17:16.568Z,90.88
2022-09-28T15:18:16.561Z,91.28
2022-09-28T15:19:16.536Z,90.77
2022-09-28T15:20:16.528Z,91.33
2022-09-28T15:21:16.543Z,90.41
2022-09-28T15:22:16.522Z,90.51
2022-09-28T15:23:16.533Z,90.71
2022-09-28T15:24:16.575Z,91.67
2022-09-28T15:25:16.488Z,91.57
2022-09-28T15:26:16.486Z,91.67
2022-09-28T15:27:16.452Z,91.57
2022-09-28T15:28:16.454Z,92.08
2022-09-28T15:29:16.454Z,91.98
2022-09-28T15:30:16.430Z,92.39
2022-09-28T15:31:16.495Z,91.98
2022-09-28T15:32:16.555Z,91.98
2022-09-28T15:33:16.431Z,92.43
2022-09-28T15:34:16.456Z,92.02
2022-09-28T15:35:16.378Z,92.33
2022-09-28T15:36:16.364Z,93.25
2022-09-28T15:37:16.352Z,93.25
2022-09-28T15:38:16.374Z,93.15
2022-09-28T15:39:16.343Z,93.29
2022-09-28T15:40:16.528Z,93.50
2022-09-28T15:41:16.315Z,93.09
2022-09-28T15:42:16.305Z,93.70
2022-09-28T15:43:16.318Z,93.50
2022-09-28T15:44:16.356Z,94.01
2022-09-28T15:45:16.277Z,93.80
2022-09-28T15:46:16.347Z,94.21
2022-09-28T15:47:16.261Z,94.42
2022-09-28T15:48:16.240Z,94.32
2022-09-28T15:49:16.227Z,93.33
2022-09-28T15:50:16.224Z,94.32
2022-09-28T15:51:16.200Z,94.97
2022-09-28T15:52:16.205Z,94.46
2022-09-28T15:53:16.196Z,94.26
2022-09-28T15:54:16.219Z,93.74
2022-09-28T15:55:16.165Z,93.69
2022-09-28T15:56:16.167Z,93.79
2022-09-28T15:57:16.138Z,94.15
2022-09-28T15:58:16.124Z,94.15
2022-09-28T15:59:16.125Z,94.15
2022-09-28T16:00:16.103Z,94.56
2022-09-28T16:01:16.167Z,94.71
2022-09-28T16:02:16.132Z,94.71
2022-09-28T16:03:16.071Z,94.97
2022-09-28T16:04:16.129Z,94.97
2022-09-28T16:05:16.054Z,95.43
2022-09-28T16:06:16.039Z,95.59
2022-09-28T16:07:16.044Z,94.71
2022-09-28T16:08:16.028Z,94.40
2022-09-28T16:09:16.161Z,94.60
2022-09-28T16:10:16.006Z,94.92
2022-09-28T16:11:15.990Z,95.53
2022-09-28T16:12:16.019Z,95.32
2022-09-28T16:13:15.988Z,95.06
2022-09-28T16:14:15.968Z,95.26
2022-09-28T16:15:15.956Z,95.63
2022-09-28T16:16:16.041Z,95.63
2022-09-28T16:17:15.934Z,96.14
2022-09-28T16:18:15.936Z,95.94
2022-09-28T16:19:15.965Z,96.25
2022-09-28T16:20:15.921Z,96.34
2022-09-28T16:21:15.889Z,96.49
2022-09-28T16:22:15.879Z,97.00
2022-09-28T16:23:15.874Z,97.31
2022-09-28T16:24:15.863Z,97.21
2022-09-28T16:25:15.870Z,97.00
2022-09-28T16:26:15.842Z,97.41
2022-09-28T16:27:15.819Z,97.46
2022-09-28T16:28:15.831Z,96.13
2022-09-28T16:29:15.901Z,96.84
2022-09-28T16:30:15.799Z,97.15
2022-09-28T16:31:15.839Z,97.36
2022-09-28T16:32:15.802Z,97.00
2022-09-28T16:33:15.752Z,96.91
2022-09-28T16:34:24.804Z,97.11
2022-09-28T16:35:23.391Z,97.11
2022-09-28T16:36:23.351Z,97.82
2022-09-28T16:37:24.394Z,97.11
2022-09-28T16:38:23.360Z,96.91
2022-09-28T16:39:15.733Z,97.15
2022-09-28T16:40:15.745Z,96.59
2022-09-28T16:41:15.698Z,97.92
2022-09-28T16:42:15.725Z,97.21
2022-09-28T16:43:15.663Z,97.11
2022-09-28T16:44:15.669Z,97.00
2022-09-28T16:45:15.656Z,97.46
2022-09-28T16:46:15.692Z,97.77
2022-09-28T16:47:15.608Z,97.87
2022-09-28T16:48:17.495Z,98.18
2022-09-28T16:49:15.618Z,97.87
2022-09-28T16:50:15.588Z,98.07
2022-09-28T16:51:15.605Z,97.97
2022-09-28T16:52:15.555Z,98.13
2022-09-28T16:53:15.541Z,97.77
2022-09-28T16:54:15.559Z,98.38
2022-09-28T16:55:39.004Z,98.58
2022-09-28T16:56:16.518Z,98.83
2022-09-28T16:57:15.499Z,98.69
2022-09-28T16:58:15.500Z,98.99
2022-09-28T16:59:15.548Z,98.79
2022-09-28T17:00:15.526Z,99.30
2022-09-28T17:01:15.506Z,99.20
2022-09-28T17:02:35.335Z,98.90
2022-09-28T17:03:16.502Z,99.35
2022-09-28T17:04:15.435Z,99.51
2022-09-28T17:05:15.413Z,99.10
2022-09-28T17:06:15.423Z,99.20
2022-09-28T17:07:15.402Z,99.25
2022-09-28T17:08:15.389Z,99.35
2022-09-28T17:09:15.395Z,99.25
2022-09-28T17:10:15.381Z,99.10
2022-09-28T17:11:20.210Z,98.94
2022-09-28T17:12:16.357Z,99.04
2022-09-28T17:13:15.334Z,99.10
2022-09-28T17:14:15.329Z,99.51
2022-09-28T17:15:15.311Z,99.20
2022-09-28T17:16:15.774Z,98.69
2022-09-28T17:17:17.189Z,98.90
2022-09-28T17:18:15.295Z,99.41
2022-09-28T17:19:15.271Z,99.51
2022-09-28T17:20:15.262Z,99.20
2022-09-28T17:21:15.247Z,98.79
2022-09-28T17:22:15.248Z,99.51
2022-09-28T17:23:15.246Z,98.83
2022-09-28T17:24:15.305Z,99.04
2022-09-28T17:25:15.211Z,99.04
2022-09-28T17:26:15.212Z,99.04
2022-09-28T17:27:15.188Z,99.25
2022-09-28T17:28:15.196Z,99.15
2022-09-28T17:29:15.161Z,98.94
2022-09-28T17:30:15.174Z,98.83
2022-09-28T17:31:15.246Z,98.83
2022-09-28T17:32:15.157Z,99.66
2022-09-28T17:33:15.122Z,99.66
2022-09-28T17:34:15.135Z,99.04
2022-09-28T17:35:25.262Z,99.30
2022-09-28T17:36:16.110Z,99.30
2022-09-28T17:37:15.092Z,99.96
2022-09-28T17:38:15.077Z,99.61
2022-09-28T17:39:15.088Z,99.61
2022-09-28T17:40:15.045Z,99.76
2022-09-28T17:41:20.056Z,99.86
2022-09-28T17:42:16.058Z,99.76
2022-09-28T17:43:15.031Z,99.35
2022-09-28T17:44:15.094Z,99.71
2022-09-28T17:45:14.998Z,99.55
2022-09-28T17:46:15.022Z,99.91
2022-09-28T17:47:14.984Z,99.71
2022-09-28T17:48:14.988Z,99.71
2022-09-28T17:49:14.990Z,99.99
2022-09-28T17:50:14.944Z,99.99
2022-09-28T17:51:14.948Z,99.99
2022-09-28T17:52:14.927Z,99.99
2022-09-28T17:53:14.913Z,99.61
2022-09-28T17:54:14.922Z,99.71
2022-09-28T17:55:14.900Z,99.86
2022-09-28T17:56:14.892Z,99.76
2022-09-28T17:57:14.876Z,99.91
2022-09-28T17:58:14.869Z,99.82
2022-09-28T17:59:14.849Z,99.20
2022-09-28T18:00:14.872Z,99.61
2022-09-28T18:01:14.905Z,99.41
2022-09-28T18:02:14.820Z,98.99
2022-09-28T18:03:14.819Z,99.10
2022-09-28T18:04:33.388Z,98.90
2022-09-28T18:05:15.789Z,99.51
2022-09-28T18:06:14.803Z,99.61
2022-09-28T18:07:14.795Z,99.20
2022-09-28T18:08:14.758Z,99.41
2022-09-28T18:09:14.752Z,99.41
2022-09-28T18:10:14.734Z,99.61
2022-09-28T18:11:14.759Z,99.41
2022-09-28T18:12:14.720Z,99.30
2022-09-28T18:13:14.725Z,99.51
2022-09-28T18:14:14.701Z,99.30
2022-09-28T18:15:14.689Z,99.41
2022-09-28T18:16:14.815Z,99.61
2022-09-28T18:17:14.686Z,99.10
2022-09-28T18:18:14.664Z,99.51
2022-09-28T18:19:14.668Z,99.41
2022-09-28T18:20:14.651Z,99.51
2022-09-28T18:21:14.632Z,99.51
2022-09-28T18:22:14.610Z,99.30
2022-09-28T18:23:14.641Z,99.41
2022-09-28T18:24:14.633Z,99.30
2022-09-28T18:25:14.599Z,99.82
2022-09-28T18:26:14.572Z,99.30
2022-09-28T18:27:14.560Z,99.30
2022-09-28T18:28:14.565Z,99.30
2022-09-28T18:29:14.553Z,99.71
2022-09-28T18:30:14.531Z,99.41
2022-09-28T18:31:14.596Z,98.99
2022-09-28T18:32:14.516Z,99.30
2022-09-28T18:33:14.505Z,99.30
2022-09-28T18:34:14.561Z,99.91
2022-09-28T18:35:14.481Z,99.71
2022-09-28T18:36:14.486Z,99.41
2022-09-28T18:37:14.469Z,99.51
2022-09-28T18:38:14.455Z,99.51
2022-09-28T18:39:14.445Z,99.35
2022-09-28T18:40:14.427Z,99.45
2022-09-28T18:41:14.414Z,99.55
2022-09-28T18:42:14.406Z,99.25
2022-09-28T18:43:14.405Z,99.35
2022-09-28T18:44:23.359Z,99.45
2022-09-28T18:45:14.463Z,99.41
2022-09-28T18:46:22.078Z,99.66
2022-09-28T18:47:22.028Z,99.45
2022-09-28T18:48:14.468Z,99.99
2022-09-28T18:49:14.414Z,99.25
2022-09-28T18:50:14.417Z,99.76
2022-09-28T18:51:14.406Z,99.76
2022-09-28T18:52:14.317Z,99.96
2022-09-28T18:53:14.283Z,99.96
2022-09-28T18:54:14.293Z,99.86
2022-09-28T18:55:14.284Z,99.99
2022-09-28T18:56:14.271Z,99.99
2022-09-28T18:57:14.243Z,99.99
2022-09-28T18:58:14.243Z,99.99
2022-09-28T18:59:14.502Z,99.99
2022-09-28T19:00:14.217Z,99.99
2022-09-28T19:01:29.521Z,99.80
2022-09-28T19:02:15.311Z,99.50
2022-09-28T19:03:14.475Z,99.50
2022-09-28T19:04:14.190Z,99.99
2022-09-28T19:05:14.200Z,99.70
2022-09-28T19:06:14.153Z,99.99
2022-09-28T19:07:14.155Z,99.70
2022-09-28T19:08:14.162Z,99.99
2022-09-28T19:09:14.126Z,99.99
2022-09-28T19:10:14.105Z,99.99
2022-09-28T19:11:14.121Z,99.99
2022-09-28T19:12:14.097Z,99.99
2022-09-28T19:13:14.083Z,99.99
2022-09-28T19:14:14.074Z,99.99
2022-09-28T19:15:14.058Z,99.99
2022-09-28T19:16:14.100Z,99.99
2022-09-28T19:17:14.061Z,99.99
2022-09-28T19:18:14.067Z,99.99
2022-09-28T19:19:14.037Z,99.99
2022-09-28T19:20:14.002Z,99.99
2022-09-28T19:21:14.006Z,99.99
2022-09-28T19:22:13.980Z,99.99
2022-09-28T19:23:13.993Z,99.99
2022-09-28T19:24:14.004Z,99.99
2022-09-28T19:25:14.020Z,99.99
2022-09-28T19:26:13.937Z,99.99
2022-09-28T19:27:13.959Z,99.99
2022-09-28T19:28:13.926Z,99.99
2022-09-28T19:29:13.939Z,99.99
2022-09-28T19:30:13.909Z,99.99
2022-09-28T19:31:13.910Z,99.99
2022-09-28T19:32:13.873Z,99.99
2022-09-28T19:33:13.863Z,99.99
2022-09-28T19:34:14.445Z,99.99
2022-09-28T19:35:13.859Z,99.99
2022-09-28T19:36:13.865Z,99.99
2022-09-28T19:37:13.849Z,99.99
2022-09-28T19:38:13.817Z,99.99
2022-09-28T19:39:13.822Z,99.99
2022-09-28T19:40:13.827Z,99.99
2022-09-28T19:41:13.783Z,99.99
2022-09-28T19:42:13.785Z,99.99
2022-09-28T19:43:13.770Z,99.99
2022-09-28T19:44:13.812Z,99.99
2022-09-28T19:45:13.753Z,99.99